Time;durP1;ratioP1;P1;durP2;ratioP2;P2;SDS_P1;SDS_P2;PMS_P1;PMS_P2;Temp;Humidity;BMP_temperature;BMP_pressure;BME280_temperature;BME280_humidity;BME280_pressure;Samples;Min_cycle;Max_cycle;Signal;HPM_P1;HPM_P2
2021/11/15 00:02:23;;;;;;;1.40;1.30;;;18.00;99.90;;;;;;5091254;28;20454;-71
2021/11/15 00:04:55;;;;;;;1.40;1.30;;;18.00;99.90;;;;;;5104345;28;20457;-70
2021/11/15 00:07:26;;;;;;;1.40;1.30;;;17.90;99.90;;;;;;5089019;28;20421;-70
2021/11/15 00:09:57;;;;;;;1.40;1.27;;;17.90;99.90;;;;;;5077766;28;20553;-71
2021/11/15 00:12:30;;;;;;;1.20;1.10;;;17.90;99.90;;;;;;5081913;28;20458;-70
2021/11/15 00:15:00;;;;;;;1.57;1.40;;;17.90;99.90;;;;;;5090898;28;20478;-71
2021/11/15 00:17:31;;;;;;;1.40;1.30;;;17.80;99.90;;;;;;5103626;28;20963;-72
2021/11/15 00:20:02;;;;;;;1.50;1.40;;;17.80;99.90;;;;;;5101542;28;21070;-71
2021/11/15 00:22:33;;;;;;;2.13;1.93;;;17.80;99.90;;;;;;5075206;28;20952;-70
2021/11/15 00:25:05;;;;;;;1.50;1.20;;;17.80;99.90;;;;;;5101078;28;20952;-70
2021/11/15 00:27:38;;;;;;;1.30;1.20;;;17.70;99.90;;;;;;5090691;28;20485;-70
2021/11/15 00:30:11;;;;;;;1.27;1.17;;;17.70;99.90;;;;;;5085504;28;20455;-70
2021/11/15 00:32:43;;;;;;;1.33;1.10;;;17.70;99.90;;;;;;5092455;28;20756;-70
2021/11/15 00:35:14;;;;;;;1.57;1.30;;;17.60;99.90;;;;;;5110497;28;20485;-70
2021/11/15 00:37:45;;;;;;;1.30;1.20;;;17.70;99.90;;;;;;5103545;28;20449;-71
2021/11/15 00:40:19;;;;;;;2.23;1.17;;;17.70;99.90;;;;;;5100440;28;20450;-71
2021/11/15 00:42:51;;;;;;;1.37;1.10;;;17.60;99.90;;;;;;5076591;28;20843;-70
2021/11/15 00:45:22;;;;;;;1.40;1.30;;;17.60;99.90;;;;;;5085778;28;20481;-71
2021/11/15 00:47:53;;;;;;;1.33;1.23;;;17.50;99.90;;;;;;5100808;28;20473;-70
2021/11/15 00:50:24;;;;;;;3.00;1.20;;;17.50;99.90;;;;;;5102136;28;20446;-70
2021/11/15 00:52:55;;;;;;;1.90;0.90;;;17.50;99.90;;;;;;5105571;28;20858;-70
2021/11/15 00:55:26;;;;;;;1.43;1.20;;;17.50;99.90;;;;;;5087957;28;20544;-70
2021/11/15 00:57:58;;;;;;;0.97;0.93;;;17.50;99.90;;;;;;5090033;28;20429;-70
2021/11/15 01:00:31;;;;;;;1.20;1.10;;;17.50;99.90;;;;;;5086733;28;20457;-71
2021/11/15 01:03:06;;;;;;;2.50;1.10;;;17.50;99.90;;;;;;5097239;28;20460;-71
2021/11/15 01:05:38;;;;;;;1.00;1.00;;;17.50;99.90;;;;;;5081517;28;20449;-71
2021/11/15 01:08:09;;;;;;;1.70;1.50;;;17.50;99.90;;;;;;5089857;28;20456;-71
2021/11/15 01:10:40;;;;;;;1.60;1.37;;;17.50;99.90;;;;;;5088662;28;21088;-71
2021/11/15 01:13:13;;;;;;;2.03;1.20;;;17.40;99.90;;;;;;5079186;28;20450;-70
2021/11/15 01:15:44;;;;;;;1.50;1.40;;;17.40;99.90;;;;;;5105128;28;20546;-70
2021/11/15 01:18:15;;;;;;;1.63;0.83;;;17.40;99.90;;;;;;5098528;28;20476;-70
2021/11/15 01:20:46;;;;;;;1.40;1.30;;;17.30;99.90;;;;;;5092152;28;20447;-70
2021/11/15 01:23:17;;;;;;;2.83;1.80;;;17.30;99.90;;;;;;5089921;28;20838;-71
2021/11/15 01:25:49;;;;;;;2.00;0.90;;;17.30;99.90;;;;;;5103130;28;20492;-70
2021/11/15 01:28:21;;;;;;;1.50;1.40;;;17.30;99.90;;;;;;5088461;28;20450;-70
2021/11/15 01:30:52;;;;;;;1.20;1.10;;;17.30;99.90;;;;;;5089817;28;20905;-69
2021/11/15 01:33:23;;;;;;;1.60;1.50;;;17.10;99.90;;;;;;5100298;28;20458;-69
2021/11/15 01:35:54;;;;;;;1.53;1.27;;;17.10;99.90;;;;;;5088487;28;20488;-69
2021/11/15 01:38:25;;;;;;;1.33;1.20;;;17.10;99.90;;;;;;5100617;28;20449;-69
2021/11/15 01:40:56;;;;;;;1.03;0.93;;;17.10;99.90;;;;;;5088426;28;20436;-69
2021/11/15 01:43:29;;;;;;;1.60;1.20;;;17.10;99.90;;;;;;5104824;28;20963;-69
2021/11/15 01:46:00;;;;;;;1.10;1.00;;;17.00;99.90;;;;;;5081348;28;20451;-69
2021/11/15 01:48:31;;;;;;;1.43;1.10;;;17.00;99.90;;;;;;5092786;28;20511;-69
2021/11/15 01:51:02;;;;;;;0.90;0.90;;;17.00;99.90;;;;;;5091920;28;20455;-69
2021/11/15 01:53:32;;;;;;;1.40;1.10;;;17.00;99.90;;;;;;5097395;28;20455;-69
2021/11/15 01:56:03;;;;;;;1.10;1.00;;;16.90;99.90;;;;;;5106668;28;20484;-69
2021/11/15 01:58:36;;;;;;;2.10;1.00;;;16.90;99.90;;;;;;5080843;28;20464;-69
2021/11/15 02:01:07;;;;;;;0.90;0.90;;;16.90;99.90;;;;;;5095485;28;20446;-69
2021/11/15 02:03:39;;;;;;;1.20;1.10;;;16.80;99.90;;;;;;5112677;28;20786;-69
2021/11/15 02:06:16;;;;;;;1.20;1.10;;;16.80;99.90;;;;;;5102913;28;21031;-70
2021/11/15 02:08:48;;;;;;;1.00;0.80;;;16.80;99.90;;;;;;5091618;28;20454;-69
2021/11/15 02:11:19;;;;;;;1.23;1.13;;;16.70;99.90;;;;;;5094911;28;20485;-69
2021/11/15 02:13:54;;;;;;;0.70;0.70;;;16.70;99.90;;;;;;5092873;28;20903;-69
2021/11/15 02:16:28;;;;;;;1.23;1.10;;;16.70;99.90;;;;;;5093458;28;21078;-69
2021/11/15 02:19:01;;;;;;;1.40;1.30;;;16.80;99.90;;;;;;5107578;28;20457;-69
2021/11/15 02:21:34;;;;;;;1.20;1.00;;;16.80;99.90;;;;;;5096308;28;20462;-69
2021/11/15 02:24:06;;;;;;;1.40;1.10;;;16.70;99.90;;;;;;5101083;28;20479;-69
2021/11/15 02:26:36;;;;;;;2.37;1.10;;;16.70;99.90;;;;;;5102637;28;20462;-69
2021/11/15 02:29:07;;;;;;;2.10;0.90;;;16.80;99.90;;;;;;5113087;28;20797;-69
2021/11/15 02:31:38;;;;;;;1.00;0.90;;;16.80;99.90;;;;;;5101092;28;20789;-69
2021/11/15 02:34:10;;;;;;;1.07;0.93;;;16.80;99.90;;;;;;5103066;28;20514;-69
2021/11/15 02:36:43;;;;;;;1.00;1.00;;;16.70;99.90;;;;;;5105159;28;20493;-69
2021/11/15 02:39:14;;;;;;;0.70;0.70;;;16.70;99.90;;;;;;5102982;28;20454;-69
2021/11/15 02:41:45;;;;;;;1.00;0.80;;;16.70;99.90;;;;;;5102925;28;20455;-69
2021/11/15 02:44:16;;;;;;;1.60;1.07;;;16.70;99.90;;;;;;5092382;28;20454;-69
2021/11/15 02:46:47;;;;;;;0.80;0.80;;;16.70;99.90;;;;;;5090862;28;20446;-69
2021/11/15 02:49:18;;;;;;;1.13;1.03;;;16.70;99.90;;;;;;5101786;28;20571;-69
2021/11/15 02:51:50;;;;;;;0.77;0.77;;;16.70;99.90;;;;;;5098971;28;20472;-69
2021/11/15 02:54:24;;;;;;;0.83;0.80;;;16.70;99.90;;;;;;5100984;28;20460;-69
2021/11/15 02:56:55;;;;;;;0.70;0.70;;;16.70;99.90;;;;;;5090674;28;20478;-69
2021/11/15 02:59:26;;;;;;;0.97;0.90;;;16.70;99.90;;;;;;5090057;28;20462;-69
2021/11/15 03:01:56;;;;;;;1.63;1.00;;;16.60;99.90;;;;;;5090334;28;20823;-70
2021/11/15 03:04:27;;;;;;;1.73;1.60;;;16.60;99.90;;;;;;5095392;28;20465;-69
2021/11/15 03:07:00;;;;;;;1.00;0.70;;;16.60;99.90;;;;;;5094937;28;20945;-68
2021/11/15 03:09:31;;;;;;;0.80;0.80;;;16.60;99.90;;;;;;5083529;28;20963;-69
2021/11/15 03:12:02;;;;;;;1.43;0.80;;;16.60;99.90;;;;;;5080313;28;20452;-69
2021/11/15 03:14:33;;;;;;;1.23;0.90;;;16.60;99.90;;;;;;5091719;28;20459;-69
2021/11/15 03:17:05;;;;;;;1.10;1.03;;;16.60;99.90;;;;;;5086593;28;20474;-69
2021/11/15 03:19:35;;;;;;;2.50;0.90;;;16.50;99.90;;;;;;5090965;28;20461;-69
2021/11/15 03:22:08;;;;;;;1.03;0.93;;;16.50;99.90;;;;;;5101084;28;20457;-69
2021/11/15 03:24:39;;;;;;;0.83;0.80;;;16.50;99.90;;;;;;5098890;28;20454;-69
2021/11/15 03:27:10;;;;;;;2.03;0.90;;;16.50;99.90;;;;;;5091409;28;20975;-69
2021/11/15 03:29:41;;;;;;;0.90;0.90;;;16.50;99.90;;;;;;5089473;28;20458;-69
2021/11/15 03:32:15;;;;;;;1.90;1.23;;;16.50;99.90;;;;;;5090325;28;20447;-69
2021/11/15 03:34:47;;;;;;;0.97;0.90;;;16.50;99.90;;;;;;5105717;28;20533;-69
2021/11/15 03:37:20;;;;;;;1.20;0.77;;;16.50;99.90;;;;;;5089892;28;20517;-69
2021/11/15 03:39:51;;;;;;;0.90;0.90;;;16.50;99.90;;;;;;5097788;28;20457;-69
2021/11/15 03:42:24;;;;;;;2.43;0.80;;;16.50;99.90;;;;;;5095150;28;20466;-69
2021/11/15 03:44:55;;;;;;;1.73;0.93;;;16.50;99.90;;;;;;5098017;28;20459;-69
2021/11/15 03:47:26;;;;;;;0.93;0.80;;;16.40;99.90;;;;;;5085792;28;20457;-69
2021/11/15 03:49:57;;;;;;;1.10;0.93;;;16.50;99.90;;;;;;5089503;28;20982;-69
2021/11/15 03:52:30;;;;;;;1.20;1.10;;;16.50;99.90;;;;;;5091167;28;20454;-69
2021/11/15 03:55:01;;;;;;;1.10;1.00;;;16.50;99.90;;;;;;5091552;28;20482;-69
2021/11/15 03:57:31;;;;;;;0.93;0.93;;;16.40;99.90;;;;;;5097220;28;20482;-69
2021/11/15 04:00:04;;;;;;;0.80;0.80;;;16.50;99.90;;;;;;5089397;28;20450;-69
2021/11/15 04:02:36;;;;;;;0.93;0.80;;;16.50;99.90;;;;;;5088732;28;20455;-69
2021/11/15 04:05:10;;;;;;;1.30;1.20;;;16.50;99.90;;;;;;5089988;28;20826;-70
2021/11/15 04:07:49;;;;;;;1.20;1.10;;;16.50;99.90;;;;;;5094082;28;20903;-69
2021/11/15 04:10:23;;;;;;;1.60;0.97;;;16.50;99.90;;;;;;5109131;28;20449;-69
2021/11/15 04:12:56;;;;;;;0.70;0.70;;;16.50;99.90;;;;;;5091411;28;20453;-69
2021/11/15 04:15:27;;;;;;;1.37;0.80;;;16.50;99.90;;;;;;5095802;28;20441;-70
2021/11/15 04:17:59;;;;;;;0.70;0.70;;;16.40;99.90;;;;;;5102824;28;20474;-69
2021/11/15 04:20:30;;;;;;;1.47;1.00;;;16.40;99.90;;;;;;5089451;28;20458;-69
2021/11/15 04:23:03;;;;;;;1.67;0.90;;;16.40;99.90;;;;;;5098670;28;20447;-69
2021/11/15 04:25:34;;;;;;;0.80;0.80;;;16.40;99.90;;;;;;5086396;28;20858;-70
2021/11/15 04:28:05;;;;;;;0.73;0.73;;;16.40;99.90;;;;;;5102441;28;20447;-69
2021/11/15 04:30:36;;;;;;;1.50;0.70;;;16.30;99.90;;;;;;5087358;28;20466;-69
2021/11/15 04:33:08;;;;;;;1.10;0.73;;;16.30;99.90;;;;;;5089880;28;20461;-70
2021/11/15 04:35:40;;;;;;;0.83;0.83;;;16.30;99.90;;;;;;5091083;28;20481;-69
2021/11/15 04:38:12;;;;;;;1.40;1.10;;;16.40;99.90;;;;;;5101247;28;20489;-69
2021/11/15 04:40:44;;;;;;;1.07;0.97;;;16.30;99.90;;;;;;5099484;28;20948;-69
2021/11/15 04:43:15;;;;;;;2.10;0.80;;;16.30;99.90;;;;;;5090109;28;20461;-69
2021/11/15 04:45:46;;;;;;;0.80;0.80;;;16.40;99.90;;;;;;5079063;28;20792;-69
2021/11/15 04:48:17;;;;;;;0.80;0.80;;;16.30;99.90;;;;;;5089546;28;20451;-69
2021/11/15 04:50:48;;;;;;;0.60;0.60;;;16.30;99.90;;;;;;5089397;28;20936;-70
2021/11/15 04:53:20;;;;;;;1.40;0.80;;;16.30;99.90;;;;;;5087063;28;20565;-69
2021/11/15 04:55:51;;;;;;;1.10;1.00;;;16.30;99.90;;;;;;5096523;28;20450;-70
2021/11/15 04:58:22;;;;;;;0.60;0.60;;;16.20;99.90;;;;;;5105762;28;20495;-70
2021/11/15 05:00:53;;;;;;;1.23;1.07;;;16.20;99.90;;;;;;5099016;28;20449;-70
2021/11/15 05:03:24;;;;;;;0.90;0.90;;;16.20;99.90;;;;;;5088446;28;20960;-69
2021/11/15 05:05:55;;;;;;;1.07;0.97;;;16.30;99.90;;;;;;5088649;28;20909;-69
2021/11/15 05:08:27;;;;;;;1.80;1.33;;;16.30;99.90;;;;;;5101176;28;20445;-69
2021/11/15 05:10:58;;;;;;;0.90;0.80;;;16.20;99.90;;;;;;5095337;28;20453;-69
2021/11/15 05:13:29;;;;;;;1.13;0.70;;;16.20;99.90;;;;;;5095752;28;20458;-70
2021/11/15 05:16:00;;;;;;;0.87;0.87;;;16.10;99.90;;;;;;5102611;28;20445;-69
2021/11/15 05:18:31;;;;;;;1.20;1.10;;;16.20;99.90;;;;;;5093848;28;20501;-70
2021/11/15 05:21:02;;;;;;;0.70;0.70;;;16.10;99.90;;;;;;5098178;28;20462;-69
2021/11/15 05:23:37;;;;;;;0.90;0.90;;;16.10;99.90;;;;;;5077535;28;20930;-70
2021/11/15 05:26:08;;;;;;;2.73;0.90;;;16.10;99.90;;;;;;5092360;28;20539;-70
2021/11/15 05:28:39;;;;;;;1.40;1.30;;;16.10;99.90;;;;;;5101121;28;20443;-70
2021/11/15 05:31:10;;;;;;;0.93;0.80;;;16.00;99.90;;;;;;5101896;28;21332;-70
2021/11/15 05:33:41;;;;;;;1.30;1.20;;;16.00;99.90;;;;;;5097379;28;20450;-70
2021/11/15 05:36:11;;;;;;;0.63;0.63;;;16.10;99.90;;;;;;5101414;28;20552;-70
2021/11/15 05:38:44;;;;;;;1.07;0.90;;;16.00;99.90;;;;;;5100004;28;20478;-70
2021/11/15 05:41:15;;;;;;;0.87;0.80;;;16.10;99.90;;;;;;5090128;28;20855;-70
2021/11/15 05:43:46;;;;;;;1.00;0.90;;;16.10;99.90;;;;;;5093599;28;20875;-69
2021/11/15 05:46:16;;;;;;;1.53;1.30;;;16.00;99.90;;;;;;5082759;28;20533;-70
2021/11/15 05:48:48;;;;;;;0.80;0.77;;;16.00;99.90;;;;;;5091226;28;20458;-70
2021/11/15 05:51:18;;;;;;;2.20;1.23;;;16.00;99.90;;;;;;5103259;28;20461;-70
2021/11/15 05:53:51;;;;;;;0.90;0.90;;;16.00;99.90;;;;;;5093325;28;20579;-70
2021/11/15 05:56:24;;;;;;;0.60;0.60;;;16.00;99.90;;;;;;5102768;28;20975;-69
2021/11/15 05:58:55;;;;;;;2.80;0.90;;;15.90;99.90;;;;;;5093003;28;20477;-70
2021/11/15 06:01:26;;;;;;;1.80;1.00;;;15.90;99.90;;;;;;5106416;28;20464;-69
2021/11/15 06:03:57;;;;;;;1.10;0.80;;;15.90;99.90;;;;;;5112853;27;20786;-69
2021/11/15 06:06:28;;;;;;;1.10;0.80;;;15.90;99.90;;;;;;5086001;28;20469;-70
2021/11/15 06:09:00;;;;;;;0.80;0.80;;;15.90;99.90;;;;;;5093862;28;20450;-69
2021/11/15 06:11:31;;;;;;;0.77;0.77;;;15.90;99.90;;;;;;5077351;28;20566;-70
2021/11/15 06:14:02;;;;;;;2.00;0.53;;;15.80;99.90;;;;;;5089280;28;20470;-70
2021/11/15 06:16:33;;;;;;;1.10;0.70;;;15.80;99.90;;;;;;5075340;28;20568;-70
2021/11/15 06:19:04;;;;;;;0.50;0.40;;;15.80;99.90;;;;;;5100226;28;20481;-70
2021/11/15 06:21:35;;;;;;;1.40;0.90;;;15.80;99.90;;;;;;5096072;28;20442;-70
2021/11/15 06:24:08;;;;;;;1.17;0.83;;;15.80;99.90;;;;;;5101242;28;20454;-69
2021/11/15 06:26:45;;;;;;;2.20;0.87;;;15.80;99.90;;;;;;5087847;28;20990;-70
2021/11/15 06:29:16;;;;;;;1.43;0.67;;;15.80;99.90;;;;;;5081609;28;20455;-70
2021/11/15 06:31:47;;;;;;;0.80;0.80;;;15.80;99.90;;;;;;5095834;28;20458;-70
2021/11/15 06:34:18;;;;;;;0.70;0.60;;;15.80;99.90;;;;;;5095922;28;20796;-69
2021/11/15 06:36:49;;;;;;;0.97;0.80;;;15.80;99.90;;;;;;5099156;28;20576;-70
2021/11/15 06:39:24;;;;;;;0.50;0.40;;;15.70;99.90;;;;;;5090945;28;20482;-70
2021/11/15 06:41:56;;;;;;;1.23;0.67;;;15.70;99.90;;;;;;5083755;28;20524;-70
2021/11/15 06:44:28;;;;;;;2.40;0.83;;;15.70;99.90;;;;;;5088453;28;20469;-70
2021/11/15 06:46:59;;;;;;;1.00;0.80;;;15.70;99.90;;;;;;5096657;28;20461;-70
2021/11/15 06:49:30;;;;;;;1.20;0.70;;;15.70;99.90;;;;;;5095432;28;20804;-70
2021/11/15 06:52:01;;;;;;;0.80;0.73;;;15.70;99.90;;;;;;5086162;28;20445;-70
2021/11/15 06:54:34;;;;;;;1.17;1.00;;;15.70;99.90;;;;;;5112195;28;20452;-69
2021/11/15 06:57:05;;;;;;;0.77;0.77;;;15.60;99.90;;;;;;5091003;28;20446;-69
2021/11/15 06:59:36;;;;;;;0.90;0.80;;;15.70;99.90;;;;;;5090006;28;20486;-70
2021/11/15 07:02:07;;;;;;;1.53;0.90;;;15.60;99.90;;;;;;5091758;28;20915;-69
2021/11/15 07:04:38;;;;;;;0.67;0.50;;;15.60;99.90;;;;;;5103376;28;20456;-70
2021/11/15 07:07:09;;;;;;;0.70;0.70;;;15.60;99.90;;;;;;5085185;28;20451;-70
2021/11/15 07:09:41;;;;;;;1.03;0.87;;;15.70;99.90;;;;;;5096799;28;20558;-70
2021/11/15 07:12:13;;;;;;;0.60;0.60;;;15.60;99.90;;;;;;5097915;28;20466;-69
2021/11/15 07:14:44;;;;;;;1.00;0.80;;;15.60;99.90;;;;;;5112165;28;20947;-70
2021/11/15 07:17:15;;;;;;;0.70;0.70;;;15.60;99.90;;;;;;5099162;28;20445;-70
2021/11/15 07:19:46;;;;;;;1.40;0.70;;;15.60;99.90;;;;;;5090287;28;20536;-70
2021/11/15 07:22:32;;;;;;;0.70;0.70;;;15.50;99.90;;;;;;5091715;28;20465;-70
2021/11/15 07:25:07;;;;;;;0.70;0.70;;;15.50;99.90;;;;;;5086395;28;20971;-70
2021/11/15 07:27:38;;;;;;;0.87;0.70;;;15.50;99.90;;;;;;5093144;28;20472;-69
2021/11/15 07:30:10;;;;;;;0.80;0.80;;;15.50;99.90;;;;;;5101563;28;20451;-70
2021/11/15 07:32:41;;;;;;;1.10;0.70;;;15.50;99.90;;;;;;5099896;28;20457;-69
2021/11/15 07:35:12;;;;;;;0.70;0.70;;;15.50;99.90;;;;;;5102278;28;20450;-70
2021/11/15 07:37:43;;;;;;;0.70;0.50;;;15.50;99.90;;;;;;5106099;28;20472;-68
2021/11/15 07:40:18;;;;;;;0.93;0.83;;;15.60;99.90;;;;;;5100212;28;20600;-69
2021/11/15 07:42:49;;;;;;;0.70;0.57;;;15.60;99.90;;;;;;5091470;28;20825;-69
2021/11/15 07:45:20;;;;;;;1.43;0.80;;;15.60;99.90;;;;;;5079265;28;20456;-69
2021/11/15 07:47:51;;;;;;;0.97;0.40;;;15.60;99.90;;;;;;5099813;28;20457;-69
2021/11/15 07:50:21;;;;;;;0.67;0.60;;;15.60;99.90;;;;;;5098596;28;20472;-69
2021/11/15 07:52:53;;;;;;;0.73;0.73;;;15.50;99.90;;;;;;5108385;28;20473;-68
2021/11/15 07:55:25;;;;;;;0.40;0.40;;;15.50;99.90;;;;;;5109826;28;20472;-69
2021/11/15 07:57:58;;;;;;;0.50;0.40;;;15.60;99.90;;;;;;5102309;28;20470;-69
2021/11/15 08:00:29;;;;;;;0.50;0.50;;;15.50;99.90;;;;;;5092515;28;20501;-69
2021/11/15 08:03:00;;;;;;;0.43;0.43;;;15.60;99.90;;;;;;5101861;28;20453;-69
2021/11/15 08:05:31;;;;;;;0.50;0.40;;;15.60;99.90;;;;;;5100494;28;20904;-69
2021/11/15 08:08:02;;;;;;;0.50;0.50;;;15.60;99.90;;;;;;5103491;28;20466;-69
2021/11/15 08:10:36;;;;;;;0.80;0.47;;;15.60;99.90;;;;;;5090977;28;20450;-68
2021/11/15 08:13:07;;;;;;;0.40;0.40;;;15.50;99.90;;;;;;5094665;28;20454;-69
2021/11/15 08:15:38;;;;;;;1.00;0.40;;;15.50;99.90;;;;;;5099680;28;20461;-70
2021/11/15 08:18:09;;;;;;;0.50;0.50;;;15.50;99.90;;;;;;5099418;28;20457;-69
2021/11/15 08:20:41;;;;;;;1.23;0.53;;;15.50;99.90;;;;;;5089138;28;20888;-69
2021/11/15 08:23:16;;;;;;;0.53;0.40;;;15.50;99.90;;;;;;5086424;28;20558;-69
2021/11/15 08:26:26;;;;;;;0.80;0.53;;;15.50;99.90;;;;;;5081609;28;20797;-69
2021/11/15 08:29:17;;;;;;;0.50;0.47;;;15.50;99.90;;;;;;5087065;28;20442;-69
2021/11/15 08:31:50;;;;;;;1.67;0.40;;;15.50;99.90;;;;;;5086805;28;20457;-71
2021/11/15 08:34:21;;;;;;;0.67;0.40;;;15.50;99.90;;;;;;5088547;28;20743;-68
2021/11/15 08:36:52;;;;;;;1.83;0.50;;;15.50;99.90;;;;;;5079759;28;20457;-68
2021/11/15 08:39:24;;;;;;;0.53;0.50;;;15.40;99.90;;;;;;5097346;28;20841;-68
2021/11/15 08:41:58;;;;;;;1.10;0.73;;;15.40;99.90;;;;;;5094249;28;20451;-68
2021/11/15 08:44:32;;;;;;;0.40;0.30;;;15.40;99.90;;;;;;5102992;28;20453;-68
2021/11/15 08:47:03;;;;;;;0.50;0.50;;;15.40;99.90;;;;;;5096452;28;20527;-69
2021/11/15 08:49:35;;;;;;;0.63;0.40;;;15.30;99.90;;;;;;5095955;28;20449;-68
2021/11/15 08:52:07;;;;;;;1.17;0.40;;;15.30;99.90;;;;;;5103471;28;20457;-68
2021/11/15 08:54:38;;;;;;;0.40;0.37;;;15.30;99.90;;;;;;5097622;28;20458;-68
2021/11/15 08:57:11;;;;;;;0.50;0.37;;;15.30;99.90;;;;;;5101931;28;20454;-68
2021/11/15 08:59:46;;;;;;;1.00;0.40;;;15.30;99.90;;;;;;5102759;28;20817;-68
2021/11/15 09:02:17;;;;;;;0.53;0.50;;;15.30;99.90;;;;;;5102377;28;20466;-68
2021/11/15 09:04:48;;;;;;;0.40;0.30;;;15.20;99.90;;;;;;5091319;28;20455;-68
2021/11/15 09:07:19;;;;;;;0.60;0.40;;;15.20;99.90;;;;;;5091953;28;20554;-68
2021/11/15 09:09:50;;;;;;;0.50;0.30;;;15.20;99.90;;;;;;5107945;28;20457;-68
2021/11/15 09:12:22;;;;;;;0.50;0.33;;;15.20;99.90;;;;;;5085478;28;20537;-68
2021/11/15 09:14:56;;;;;;;0.63;0.63;;;15.10;99.90;;;;;;5103985;28;20626;-68
2021/11/15 09:17:27;;;;;;;0.50;0.50;;;15.10;99.90;;;;;;5108929;28;20458;-68
2021/11/15 09:19:58;;;;;;;1.53;0.77;;;15.10;99.90;;;;;;5091636;28;20475;-68
2021/11/15 09:22:28;;;;;;;0.50;0.50;;;15.00;99.90;;;;;;5094193;28;20451;-68
2021/11/15 09:24:59;;;;;;;0.80;0.60;;;15.00;99.90;;;;;;5107653;28;20455;-68
2021/11/15 09:27:32;;;;;;;1.03;0.50;;;14.90;99.90;;;;;;5101304;28;20481;-68
2021/11/15 09:30:03;;;;;;;0.80;0.40;;;15.00;99.90;;;;;;5099504;28;20461;-68
2021/11/15 09:32:34;;;;;;;0.53;0.40;;;15.00;99.90;;;;;;5103598;28;20456;-68
2021/11/15 09:35:05;;;;;;;0.40;0.40;;;14.90;99.90;;;;;;5096754;28;20468;-69
2021/11/15 09:37:36;;;;;;;0.50;0.50;;;14.90;99.90;;;;;;5091998;28;20450;-68
2021/11/15 09:40:09;;;;;;;0.60;0.50;;;14.80;99.90;;;;;;5103532;28;20505;-69
2021/11/15 09:42:42;;;;;;;0.50;0.40;;;14.80;99.90;;;;;;5088194;28;21040;-68
2021/11/15 09:45:13;;;;;;;0.60;0.60;;;14.80;99.90;;;;;;5090169;28;20465;-70
2021/11/15 09:47:44;;;;;;;0.67;0.50;;;14.80;99.90;;;;;;5087343;28;20487;-72
2021/11/15 09:50:18;;;;;;;1.27;0.50;;;14.80;99.90;;;;;;5094494;28;20450;-69
2021/11/15 09:52:49;;;;;;;0.60;0.60;;;14.80;99.90;;;;;;5104731;28;20459;-70
2021/11/15 09:55:20;;;;;;;1.47;0.70;;;14.80;99.90;;;;;;5097027;28;20554;-69
2021/11/15 09:57:53;;;;;;;1.17;0.67;;;14.90;99.90;;;;;;5094217;28;20458;-69
2021/11/15 10:00:25;;;;;;;0.60;0.60;;;14.80;99.90;;;;;;5086599;28;20482;-70
2021/11/15 10:02:58;;;;;;;0.57;0.57;;;14.70;99.90;;;;;;5089282;28;20454;-79
2021/11/15 10:05:30;;;;;;;1.33;0.70;;;14.70;99.90;;;;;;5081684;28;20493;-74
2021/11/15 10:08:09;;;;;;;1.37;0.70;;;14.70;99.90;;;;;;5093264;28;20455;-75
2021/11/15 10:10:43;;;;;;;1.23;0.60;;;14.70;99.90;;;;;;5100556;28;20449;-70
2021/11/15 10:13:20;;;;;;;0.67;0.63;;;14.70;99.90;;;;;;5081106;28;20459;-70
2021/11/15 10:15:55;;;;;;;0.47;0.30;;;14.70;99.90;;;;;;5096164;28;20832;-70
2021/11/15 10:18:47;;;;;;;0.70;0.53;;;14.70;99.90;;;;;;5108926;28;20556;-71
2021/11/15 10:21:22;;;;;;;0.60;0.50;;;14.70;99.90;;;;;;5092380;28;20514;-70
2021/11/15 10:23:56;;;;;;;2.57;0.50;;;14.70;99.90;;;;;;5093003;28;20458;-70
2021/11/15 10:26:30;;;;;;;1.23;0.50;;;14.70;99.90;;;;;;5082136;28;20470;-75
2021/11/15 10:29:10;;;;;;;0.70;0.60;;;14.60;99.90;;;;;;5091095;28;20445;-74
2021/11/15 10:31:44;;;;;;;0.60;0.60;;;14.60;99.90;;;;;;5089635;28;20453;-77
2021/11/15 10:34:20;;;;;;;0.77;0.70;;;14.50;99.90;;;;;;5100961;28;20451;-73
2021/11/15 10:37:09;;;;;;;0.60;0.40;;;14.50;99.90;;;;;;5084345;28;20461;-70
2021/11/15 10:39:49;;;;;;;0.80;0.40;;;14.40;99.90;;;;;;5092167;28;20455;-70
2021/11/15 10:42:22;;;;;;;0.73;0.60;;;14.30;99.90;;;;;;5090710;28;20554;-69
2021/11/15 10:44:57;;;;;;;0.70;0.50;;;14.30;99.90;;;;;;5096589;28;20503;-74
2021/11/15 10:47:31;;;;;;;1.90;0.53;;;14.20;99.90;;;;;;5107991;28;20446;-70
2021/11/15 10:50:18;;;;;;;0.40;0.33;;;14.10;99.90;;;;;;5103711;28;20440;-70
2021/11/15 10:53:02;;;;;;;0.87;0.70;;;14.10;99.90;;;;;;5107047;28;20458;-69
2021/11/15 10:55:36;;;;;;;0.90;0.90;;;14.10;99.90;;;;;;5092185;28;20900;-75
2021/11/15 10:58:15;;;;;;;1.73;1.60;;;14.00;99.90;;;;;;5107265;28;20444;-72
2021/11/15 11:00:52;;;;;;;1.20;1.10;;;14.00;99.90;;;;;;5097207;28;20481;-72
2021/11/15 11:03:26;;;;;;;3.90;1.73;;;14.00;99.90;;;;;;5091419;28;20981;-74
2021/11/15 11:06:00;;;;;;;1.60;1.50;;;14.00;99.90;;;;;;5095887;28;20458;-70
2021/11/15 11:08:32;;;;;;;1.87;1.40;;;13.90;99.90;;;;;;5101795;28;20453;-79
2021/11/15 11:11:06;;;;;;;1.73;1.53;;;13.80;99.90;;;;;;5088355;28;20443;-69
2021/11/15 11:13:49;;;;;;;1.70;1.00;;;13.70;99.90;;;;;;5082615;28;21887;-79
2021/11/15 11:16:22;;;;;;;1.30;1.20;;;13.70;99.90;;;;;;5107197;28;20935;-69
2021/11/15 11:19:02;;;;;;;1.23;1.10;;;13.70;99.90;;;;;;5093660;28;20484;-70
2021/11/15 11:24:32;;;;;;;1.60;0.93;;;13.60;99.90;;;;;;5090221;28;20463;-72
2021/11/15 11:27:06;;;;;;;1.40;0.90;;;13.60;99.90;;;;;;5097739;28;20483;-71
2021/11/15 11:29:41;;;;;;;1.63;0.80;;;13.60;99.90;;;;;;5100464;28;20465;-72
2021/11/15 11:32:16;;;;;;;1.23;0.87;;;13.60;99.90;;;;;;5100808;28;20441;-76
2021/11/15 11:34:48;;;;;;;1.83;0.77;;;13.60;99.90;;;;;;5091573;28;20533;-73
2021/11/15 11:37:23;;;;;;;1.10;0.77;;;13.50;99.90;;;;;;5103669;28;20445;-70
2021/11/15 11:39:55;;;;;;;0.60;0.60;;;13.60;99.90;;;;;;5092110;28;20769;-73
2021/11/15 11:42:26;;;;;;;1.37;0.70;;;13.60;99.90;;;;;;5093839;28;20482;-69
2021/11/15 11:44:58;;;;;;;0.63;0.63;;;13.60;99.90;;;;;;5096931;28;20450;-70
2021/11/15 11:47:31;;;;;;;1.17;0.77;;;13.60;99.90;;;;;;5102217;28;20454;-69
2021/11/15 11:50:03;;;;;;;3.77;0.80;;;13.50;99.90;;;;;;5090632;28;20447;-70
2021/11/15 11:52:39;;;;;;;0.77;0.77;;;13.50;99.90;;;;;;5091350;28;20469;-69
2021/11/15 11:55:21;;;;;;;0.57;0.57;;;13.50;99.90;;;;;;5101865;28;20458;-69
2021/11/15 11:57:52;;;;;;;0.53;0.50;;;13.60;99.90;;;;;;5091171;28;20461;-76
2021/11/15 12:00:23;;;;;;;0.73;0.60;;;13.60;99.90;;;;;;5084985;28;20538;-70
2021/11/15 12:03:05;;;;;;;1.73;1.00;;;13.50;99.90;;;;;;5090258;28;20483;-72
2021/11/15 12:05:36;;;;;;;1.03;0.80;;;13.60;99.90;;;;;;5089179;28;20476;-70
2021/11/15 12:08:09;;;;;;;0.90;0.90;;;13.70;99.90;;;;;;5097653;28;20763;-70
2021/11/15 12:10:43;;;;;;;1.23;0.53;;;13.70;99.90;;;;;;5097806;27;21389;-70
2021/11/15 12:13:16;;;;;;;1.30;0.70;;;13.70;99.90;;;;;;5079724;28;20464;-72
2021/11/15 12:15:56;;;;;;;0.63;0.63;;;13.70;99.90;;;;;;5074879;28;20788;-73
2021/11/15 12:18:30;;;;;;;1.70;0.87;;;13.70;99.90;;;;;;5088741;28;20534;-71
2021/11/15 12:21:21;;;;;;;2.40;1.03;;;13.70;99.90;;;;;;5095157;28;20450;-70
2021/11/15 12:24:20;;;;;;;0.90;0.90;;;13.70;99.90;;;;;;5088503;28;20453;-71
2021/11/15 12:26:52;;;;;;;1.10;1.00;;;13.70;99.90;;;;;;5060938;28;20493;-71
2021/11/15 12:29:28;;;;;;;1.10;1.00;;;13.70;99.90;;;;;;5090615;28;20458;-70
2021/11/15 12:32:02;;;;;;;1.10;1.00;;;13.70;99.90;;;;;;5101257;28;20450;-70
2021/11/15 12:34:38;;;;;;;0.90;0.90;;;13.70;99.90;;;;;;5091191;28;20459;-71
2021/11/15 12:37:09;;;;;;;1.27;0.90;;;13.70;99.90;;;;;;5089401;28;20458;-69
2021/11/15 12:39:45;;;;;;;0.80;0.80;;;13.60;99.90;;;;;;5095677;28;20545;-69
2021/11/15 12:42:28;;;;;;;0.70;0.70;;;13.60;99.90;;;;;;5092773;28;20488;-69
2021/11/15 12:45:22;;;;;;;0.83;0.80;;;13.60;99.90;;;;;;5092211;28;20458;-69
2021/11/15 12:47:53;;;;;;;1.90;0.80;;;13.60;99.90;;;;;;5090206;28;20470;-70
2021/11/15 12:50:27;;;;;;;0.87;0.87;;;13.60;99.90;;;;;;5088551;28;20480;-71
2021/11/15 12:52:59;;;;;;;3.50;2.03;;;13.60;99.90;;;;;;5090462;28;20469;-74
2021/11/15 12:55:32;;;;;;;1.20;1.10;;;13.50;99.90;;;;;;5086887;28;20809;-70
2021/11/15 12:58:05;;;;;;;1.83;0.73;;;13.60;99.90;;;;;;5090072;28;20465;-70
2021/11/15 13:00:37;;;;;;;0.93;0.87;;;13.60;99.90;;;;;;5091642;28;20464;-71
2021/11/15 13:03:10;;;;;;;2.10;1.57;;;13.60;99.90;;;;;;5097647;28;20486;-71
2021/11/15 13:05:44;;;;;;;0.67;0.63;;;13.70;99.90;;;;;;5100184;28;20943;-70
2021/11/15 13:08:15;;;;;;;0.60;0.60;;;13.70;99.90;;;;;;5102326;28;20446;-70
2021/11/15 13:10:48;;;;;;;1.23;0.90;;;13.70;99.90;;;;;;5091346;28;20457;-71
2021/11/15 13:13:20;;;;;;;0.93;0.70;;;13.80;99.90;;;;;;5087699;28;20447;-73
2021/11/15 13:15:50;;;;;;;0.70;0.70;;;13.80;99.90;;;;;;5104456;28;20450;-70
2021/11/15 13:18:21;;;;;;;0.70;0.70;;;13.80;99.90;;;;;;5093395;28;20472;-69
2021/11/15 13:20:54;;;;;;;1.60;0.90;;;13.80;99.90;;;;;;5112180;28;20449;-71